sensor_id;sensor_type;location;lat;lon;timestamp;temperature;humidity
3996;DHT22;2012;49.794;9.722;2022-09-25T00:00:49;14.20;99.90
3996;DHT22;2012;49.794;9.722;2022-09-25T00:03:16;14.10;99.90
3996;DHT22;2012;49.794;9.722;2022-09-25T00:05:45;14.00;99.90
3996;DHT22;2012;49.794;9.722;2022-09-25T00:08:14;14.00;99.90
3996;DHT22;2012;49.794;9.722;2022-09-25T00:10:49;14.00;99.90
3996;DHT22;2012;49.794;9.722;2022-09-25T00:13:18;14.00;99.90
3996;DHT22;2012;49.794;9.722;2022-09-25T00:15:53;14.00;99.90
3996;DHT22;2012;49.794;9.722;2022-09-25T00:18:21;13.90;99.90
3996;DHT22;2012;49.794;9.722;2022-09-25T00:21:09;13.90;99.90
3996;DHT22;2012;49.794;9.722;2022-09-25T00:23:41;14.00;99.90
3996;DHT22;2012;49.794;9.722;2022-09-25T00:26:09;13.90;99.90
3996;DHT22;2012;49.794;9.722;2022-09-25T00:28:36;13.90;99.90
3996;DHT22;2012;49.794;9.722;2022-09-25T00:31:05;13.90;99.90
3996;DHT22;2012;49.794;9.722;2022-09-25T00:33:33;13.90;99.90
3996;DHT22;2012;49.794;9.722;2022-09-25T00:36:05;13.90;99.90
3996;DHT22;2012;49.794;9.722;2022-09-25T00:38:33;13.90;99.90
3996;DHT22;2012;49.794;9.722;2022-09-25T00:41:01;13.90;99.90
3996;DHT22;2012;49.794;9.722;2022-09-25T00:43:37;13.90;99.90
3996;DHT22;2012;49.794;9.722;2022-09-25T00:46:11;13.90;99.90
3996;DHT22;2012;49.794;9.722;2022-09-25T00:48:49;13.90;99.90
3996;DHT22;2012;49.794;9.722;2022-09-25T00:51:19;13.90;99.90
3996;DHT22;2012;49.794;9.722;2022-09-25T00:53:47;13.90;99.90
3996;DHT22;2012;49.794;9.722;2022-09-25T00:56:15;13.90;99.90
3996;DHT22;2012;49.794;9.722;2022-09-25T00:58:42;13.90;99.90
3996;DHT22;2012;49.794;9.722;2022-09-25T01:01:09;13.90;99.90
3996;DHT22;2012;49.794;9.722;2022-09-25T01:03:36;13.80;99.90
3996;DHT22;2012;49.794;9.722;2022-09-25T01:06:05;13.70;99.90
3996;DHT22;2012;49.794;9.722;2022-09-25T01:08:33;13.80;99.90
3996;DHT22;2012;49.794;9.722;2022-09-25T01:11:00;13.80;99.90
3996;DHT22;2012;49.794;9.722;2022-09-25T01:13:27;13.80;99.90
3996;DHT22;2012;49.794;9.722;2022-09-25T01:16:15;13.70;99.90
3996;DHT22;2012;49.794;9.722;2022-09-25T01:21:58;13.60;99.90
3996;DHT22;2012;49.794;9.722;2022-09-25T01:27:30;13.80;99.90
3996;DHT22;2012;49.794;9.722;2022-09-25T01:30:07;13.80;99.90
3996;DHT22;2012;49.794;9.722;2022-09-25T01:35:33;13.70;99.90
3996;DHT22;2012;49.794;9.722;2022-09-25T01:38:08;13.70;99.90
3996;DHT22;2012;49.794;9.722;2022-09-25T01:40:47;13.70;99.90
3996;DHT22;2012;49.794;9.722;2022-09-25T01:43:34;13.70;99.90
3996;DHT22;2012;49.794;9.722;2022-09-25T01:46:11;13.70;99.90
3996;DHT22;2012;49.794;9.722;2022-09-25T01:48:41;13.80;99.90
3996;DHT22;2012;49.794;9.722;2022-09-25T01:51:18;13.90;99.90
3996;DHT22;2012;49.794;9.722;2022-09-25T01:53:50;13.90;99.90
3996;DHT22;2012;49.794;9.722;2022-09-25T02:01:39;13.80;99.90
3996;DHT22;2012;49.794;9.722;2022-09-25T02:04:14;13.80;99.90
3996;DHT22;2012;49.794;9.722;2022-09-25T02:06:45;13.80;99.90
3996;DHT22;2012;49.794;9.722;2022-09-25T02:10:00;13.80;99.90
3996;DHT22;2012;49.794;9.722;2022-09-25T02:12:11;13.80;99.90
3996;DHT22;2012;49.794;9.722;2022-09-25T02:14:53;13.80;99.90
3996;DHT22;2012;49.794;9.722;2022-09-25T02:17:24;13.80;99.90
3996;DHT22;2012;49.794;9.722;2022-09-25T02:20:12;13.70;99.90
3996;DHT22;2012;49.794;9.722;2022-09-25T02:23:20;13.70;99.90
3996;DHT22;2012;49.794;9.722;2022-09-25T02:26:20;13.70;99.90
3996;DHT22;2012;49.794;9.722;2022-09-25T02:28:48;13.70;99.90
3996;DHT22;2012;49.794;9.722;2022-09-25T02:31:15;13.70;99.90
3996;DHT22;2012;49.794;9.722;2022-09-25T02:33:42;13.70;99.90
3996;DHT22;2012;49.794;9.722;2022-09-25T02:36:17;13.70;99.90
3996;DHT22;2012;49.794;9.722;2022-09-25T02:38:45;13.70;99.90
3996;DHT22;2012;49.794;9.722;2022-09-25T02:46:57;13.70;99.90
3996;DHT22;2012;49.794;9.722;2022-09-25T02:55:25;13.70;99.90
3996;DHT22;2012;49.794;9.722;2022-09-25T02:58:14;13.60;99.90
3996;DHT22;2012;49.794;9.722;2022-09-25T03:00:43;13.60;99.90
3996;DHT22;2012;49.794;9.722;2022-09-25T03:03:13;13.60;99.90
3996;DHT22;2012;49.794;9.722;2022-09-25T03:05:41;13.60;99.90
3996;DHT22;2012;49.794;9.722;2022-09-25T03:08:08;13.60;99.90
3996;DHT22;2012;49.794;9.722;2022-09-25T03:10:54;13.70;99.90
3996;DHT22;2012;49.794;9.722;2022-09-25T03:13:22;13.80;99.90
3996;DHT22;2012;49.794;9.722;2022-09-25T03:15:56;13.80;99.90
3996;DHT22;2012;49.794;9.722;2022-09-25T03:18:26;13.80;99.90
3996;DHT22;2012;49.794;9.722;2022-09-25T03:20:53;13.80;99.90
3996;DHT22;2012;49.794;9.722;2022-09-25T03:23:20;13.70;99.90
3996;DHT22;2012;49.794;9.722;2022-09-25T03:25:47;13.70;99.90
3996;DHT22;2012;49.794;9.722;2022-09-25T03:28:16;13.70;99.90
3996;DHT22;2012;49.794;9.722;2022-09-25T03:30:42;13.60;99.90
3996;DHT22;2012;49.794;9.722;2022-09-25T03:33:11;13.60;99.90
3996;DHT22;2012;49.794;9.722;2022-09-25T03:35:38;13.70;99.90
3996;DHT22;2012;49.794;9.722;2022-09-25T03:38:05;13.70;99.90
3996;DHT22;2012;49.794;9.722;2022-09-25T03:40:35;13.70;99.90
3996;DHT22;2012;49.794;9.722;2022-09-25T03:43:02;13.70;99.90
3996;DHT22;2012;49.794;9.722;2022-09-25T03:45:28;13.70;99.90
3996;DHT22;2012;49.794;9.722;2022-09-25T03:47:55;13.70;99.90
3996;DHT22;2012;49.794;9.722;2022-09-25T03:50:21;13.80;99.90
3996;DHT22;2012;49.794;9.722;2022-09-25T03:52:48;13.70;99.90
3996;DHT22;2012;49.794;9.722;2022-09-25T03:55:14;13.70;99.90
3996;DHT22;2012;49.794;9.722;2022-09-25T03:57:41;13.80;99.90
3996;DHT22;2012;49.794;9.722;2022-09-25T04:00:08;13.80;99.90
3996;DHT22;2012;49.794;9.722;2022-09-25T04:02:35;13.70;99.90
3996;DHT22;2012;49.794;9.722;2022-09-25T04:05:02;13.70;99.90
3996;DHT22;2012;49.794;9.722;2022-09-25T04:07:29;13.70;99.90
3996;DHT22;2012;49.794;9.722;2022-09-25T04:09:56;13.70;99.90
3996;DHT22;2012;49.794;9.722;2022-09-25T04:12:22;13.80;99.90
3996;DHT22;2012;49.794;9.722;2022-09-25T04:14:49;13.80;99.90
3996;DHT22;2012;49.794;9.722;2022-09-25T04:17:16;13.80;99.90
3996;DHT22;2012;49.794;9.722;2022-09-25T04:19:43;13.80;99.90
3996;DHT22;2012;49.794;9.722;2022-09-25T04:22:10;13.70;99.90
3996;DHT22;2012;49.794;9.722;2022-09-25T04:24:36;13.70;99.90
3996;DHT22;2012;49.794;9.722;2022-09-25T04:27:22;13.70;99.90
3996;DHT22;2012;49.794;9.722;2022-09-25T04:29:49;13.70;99.90
3996;DHT22;2012;49.794;9.722;2022-09-25T04:32:15;13.70;99.90
3996;DHT22;2012;49.794;9.722;2022-09-25T04:35:01;13.80;99.90
3996;DHT22;2012;49.794;9.722;2022-09-25T04:37:28;13.80;99.90
3996;DHT22;2012;49.794;9.722;2022-09-25T04:39:56;13.80;99.90
3996;DHT22;2012;49.794;9.722;2022-09-25T04:42:24;13.80;99.90
3996;DHT22;2012;49.794;9.722;2022-09-25T04:44:52;13.80;99.90
3996;DHT22;2012;49.794;9.722;2022-09-25T04:47:24;13.80;99.90
3996;DHT22;2012;49.794;9.722;2022-09-25T04:49:51;13.80;99.90
3996;DHT22;2012;49.794;9.722;2022-09-25T04:52:18;13.80;99.90
3996;DHT22;2012;49.794;9.722;2022-09-25T04:54:45;13.80;99.90
3996;DHT22;2012;49.794;9.722;2022-09-25T04:57:15;13.80;99.90
3996;DHT22;2012;49.794;9.722;2022-09-25T05:00:03;13.80;99.90
3996;DHT22;2012;49.794;9.722;2022-09-25T05:02:30;13.70;99.90
3996;DHT22;2012;49.794;9.722;2022-09-25T05:04:57;13.70;99.90
3996;DHT22;2012;49.794;9.722;2022-09-25T05:07:24;13.70;99.90
3996;DHT22;2012;49.794;9.722;2022-09-25T05:09:50;13.80;99.90
3996;DHT22;2012;49.794;9.722;2022-09-25T05:12:17;13.80;99.90
3996;DHT22;2012;49.794;9.722;2022-09-25T05:14:43;13.70;99.90
3996;DHT22;2012;49.794;9.722;2022-09-25T05:17:10;13.70;99.90
3996;DHT22;2012;49.794;9.722;2022-09-25T05:19:37;13.80;99.90
3996;DHT22;2012;49.794;9.722;2022-09-25T05:22:04;13.80;99.90
3996;DHT22;2012;49.794;9.722;2022-09-25T05:24:31;13.80;99.90
3996;DHT22;2012;49.794;9.722;2022-09-25T05:26:57;13.80;99.90
3996;DHT22;2012;49.794;9.722;2022-09-25T05:29:24;13.80;99.90
3996;DHT22;2012;49.794;9.722;2022-09-25T05:31:51;13.80;99.90
3996;DHT22;2012;49.794;9.722;2022-09-25T05:34:17;13.70;99.90
3996;DHT22;2012;49.794;9.722;2022-09-25T05:36:44;13.70;99.90
3996;DHT22;2012;49.794;9.722;2022-09-25T05:39:11;13.60;99.90
3996;DHT22;2012;49.794;9.722;2022-09-25T05:41:40;13.70;99.90
3996;DHT22;2012;49.794;9.722;2022-09-25T05:44:07;13.70;99.90
3996;DHT22;2012;49.794;9.722;2022-09-25T05:46:35;13.60;99.90
3996;DHT22;2012;49.794;9.722;2022-09-25T05:49:03;13.60;99.90
3996;DHT22;2012;49.794;9.722;2022-09-25T05:51:31;13.60;99.90
3996;DHT22;2012;49.794;9.722;2022-09-25T05:53:58;13.60;99.90
3996;DHT22;2012;49.794;9.722;2022-09-25T05:56:26;13.60;99.90
3996;DHT22;2012;49.794;9.722;2022-09-25T05:58:53;13.60;99.90
3996;DHT22;2012;49.794;9.722;2022-09-25T06:01:20;13.60;99.90
3996;DHT22;2012;49.794;9.722;2022-09-25T06:03:47;13.60;99.90
3996;DHT22;2012;49.794;9.722;2022-09-25T06:06:13;13.60;99.90
3996;DHT22;2012;49.794;9.722;2022-09-25T06:08:40;13.60;99.90
3996;DHT22;2012;49.794;9.722;2022-09-25T06:11:07;13.70;99.90
3996;DHT22;2012;49.794;9.722;2022-09-25T06:13:34;13.60;99.90
3996;DHT22;2012;49.794;9.722;2022-09-25T06:16:03;13.60;99.90
3996;DHT22;2012;49.794;9.722;2022-09-25T06:18:31;13.60;99.90
3996;DHT22;2012;49.794;9.722;2022-09-25T06:21:02;13.60;99.90
3996;DHT22;2012;49.794;9.722;2022-09-25T06:23:29;13.60;99.90
3996;DHT22;2012;49.794;9.722;2022-09-25T06:26:00;13.50;99.90
3996;DHT22;2012;49.794;9.722;2022-09-25T06:28:27;13.50;99.90
3996;DHT22;2012;49.794;9.722;2022-09-25T06:30:57;13.50;99.90
3996;DHT22;2012;49.794;9.722;2022-09-25T06:33:24;13.50;99.90
3996;DHT22;2012;49.794;9.722;2022-09-25T06:35:51;13.50;99.90
3996;DHT22;2012;49.794;9.722;2022-09-25T06:38:18;13.50;99.90
3996;DHT22;2012;49.794;9.722;2022-09-25T06:40:44;13.40;99.90
3996;DHT22;2012;49.794;9.722;2022-09-25T06:43:13;13.50;99.90
3996;DHT22;2012;49.794;9.722;2022-09-25T06:45:41;13.50;99.90
3996;DHT22;2012;49.794;9.722;2022-09-25T06:48:11;13.50;99.90
3996;DHT22;2012;49.794;9.722;2022-09-25T06:50:47;13.50;99.90
3996;DHT22;2012;49.794;9.722;2022-09-25T06:53:17;13.50;99.90
3996;DHT22;2012;49.794;9.722;2022-09-25T06:55:44;13.40;99.90
3996;DHT22;2012;49.794;9.722;2022-09-25T06:58:16;13.40;99.90
3996;DHT22;2012;49.794;9.722;2022-09-25T07:00:49;13.40;99.90
3996;DHT22;2012;49.794;9.722;2022-09-25T07:03:16;13.40;99.90
3996;DHT22;2012;49.794;9.722;2022-09-25T07:06:02;13.30;99.90
3996;DHT22;2012;49.794;9.722;2022-09-25T07:08:29;13.30;99.90
3996;DHT22;2012;49.794;9.722;2022-09-25T07:10:57;13.30;99.90
3996;DHT22;2012;49.794;9.722;2022-09-25T07:13:27;13.30;99.90
3996;DHT22;2012;49.794;9.722;2022-09-25T07:18:26;13.40;99.90
3996;DHT22;2012;49.794;9.722;2022-09-25T07:21:03;13.30;99.90
3996;DHT22;2012;49.794;9.722;2022-09-25T07:23:30;13.30;99.90
3996;DHT22;2012;49.794;9.722;2022-09-25T07:26:06;13.20;99.90
3996;DHT22;2012;49.794;9.722;2022-09-25T07:28:33;13.20;99.90
3996;DHT22;2012;49.794;9.722;2022-09-25T07:31:21;13.30;99.90
3996;DHT22;2012;49.794;9.722;2022-09-25T07:33:48;13.20;99.90
3996;DHT22;2012;49.794;9.722;2022-09-25T07:36:16;13.20;99.90
3996;DHT22;2012;49.794;9.722;2022-09-25T07:38:47;13.30;99.90
3996;DHT22;2012;49.794;9.722;2022-09-25T07:41:14;13.30;99.90
3996;DHT22;2012;49.794;9.722;2022-09-25T07:43:40;13.30;99.90
3996;DHT22;2012;49.794;9.722;2022-09-25T07:46:09;13.30;99.90
3996;DHT22;2012;49.794;9.722;2022-09-25T07:48:36;13.30;99.90
3996;DHT22;2012;49.794;9.722;2022-09-25T07:51:05;13.30;99.90
3996;DHT22;2012;49.794;9.722;2022-09-25T07:53:32;13.40;99.90
3996;DHT22;2012;49.794;9.722;2022-09-25T07:56:00;13.40;99.90
3996;DHT22;2012;49.794;9.722;2022-09-25T07:58:32;13.30;99.90
3996;DHT22;2012;49.794;9.722;2022-09-25T08:01:03;13.40;99.90
3996;DHT22;2012;49.794;9.722;2022-09-25T08:03:30;13.40;99.90
3996;DHT22;2012;49.794;9.722;2022-09-25T08:05:58;13.40;99.90
3996;DHT22;2012;49.794;9.722;2022-09-25T08:08:26;13.40;99.90
3996;DHT22;2012;49.794;9.722;2022-09-25T08:11:00;13.40;99.90
3996;DHT22;2012;49.794;9.722;2022-09-25T08:13:29;13.40;99.90
3996;DHT22;2012;49.794;9.722;2022-09-25T08:15:56;13.40;99.90
3996;DHT22;2012;49.794;9.722;2022-09-25T08:18:23;13.40;99.90
3996;DHT22;2012;49.794;9.722;2022-09-25T08:20:50;13.50;99.90
3996;DHT22;2012;49.794;9.722;2022-09-25T08:23:18;13.50;99.90
3996;DHT22;2012;49.794;9.722;2022-09-25T08:25:48;13.50;99.90
3996;DHT22;2012;49.794;9.722;2022-09-25T08:28:15;13.50;99.90
3996;DHT22;2012;49.794;9.722;2022-09-25T08:30:41;13.50;99.90
3996;DHT22;2012;49.794;9.722;2022-09-25T08:33:12;13.60;99.90
3996;DHT22;2012;49.794;9.722;2022-09-25T08:35:41;13.60;99.90
3996;DHT22;2012;49.794;9.722;2022-09-25T08:38:09;13.60;99.90
3996;DHT22;2012;49.794;9.722;2022-09-25T08:40:54;13.60;99.90
3996;DHT22;2012;49.794;9.722;2022-09-25T08:43:23;13.60;99.90
3996;DHT22;2012;49.794;9.722;2022-09-25T08:45:51;13.60;99.90
3996;DHT22;2012;49.794;9.722;2022-09-25T08:48:56;13.50;99.90
3996;DHT22;2012;49.794;9.722;2022-09-25T08:51:35;13.50;99.90
3996;DHT22;2012;49.794;9.722;2022-09-25T08:54:04;13.50;99.90
3996;DHT22;2012;49.794;9.722;2022-09-25T08:56:33;13.50;99.90
3996;DHT22;2012;49.794;9.722;2022-09-25T08:59:33;13.50;99.90
3996;DHT22;2012;49.794;9.722;2022-09-25T09:02:11;13.70;99.90
3996;DHT22;2012;49.794;9.722;2022-09-25T09:04:53;13.80;99.90
3996;DHT22;2012;49.794;9.722;2022-09-25T09:07:37;13.80;99.90
3996;DHT22;2012;49.794;9.722;2022-09-25T09:10:27;13.70;99.90
3996;DHT22;2012;49.794;9.722;2022-09-25T09:13:08;13.70;99.90
3996;DHT22;2012;49.794;9.722;2022-09-25T09:20:54;13.60;99.90
3996;DHT22;2012;49.794;9.722;2022-09-25T09:23:23;13.60;99.90
3996;DHT22;2012;49.794;9.722;2022-09-25T09:25:56;13.70;99.90
3996;DHT22;2012;49.794;9.722;2022-09-25T09:31:49;13.60;99.90
3996;DHT22;2012;49.794;9.722;2022-09-25T09:37:42;13.50;99.90
3996;DHT22;2012;49.794;9.722;2022-09-25T09:40:23;13.60;99.90
3996;DHT22;2012;49.794;9.722;2022-09-25T09:46:12;13.60;99.90
3996;DHT22;2012;49.794;9.722;2022-09-25T09:49:04;13.70;99.90
3996;DHT22;2012;49.794;9.722;2022-09-25T09:51:44;13.70;99.90
3996;DHT22;2012;49.794;9.722;2022-09-25T09:54:21;13.70;99.90
3996;DHT22;2012;49.794;9.722;2022-09-25T09:56:51;13.70;99.90
3996;DHT22;2012;49.794;9.722;2022-09-25T09:59:24;13.70;99.90
3996;DHT22;2012;49.794;9.722;2022-09-25T10:02:08;13.70;99.90
3996;DHT22;2012;49.794;9.722;2022-09-25T10:04:39;13.70;99.90
3996;DHT22;2012;49.794;9.722;2022-09-25T10:07:16;13.70;99.90
3996;DHT22;2012;49.794;9.722;2022-09-25T10:09:45;13.80;99.90
3996;DHT22;2012;49.794;9.722;2022-09-25T10:12:23;13.80;99.90
3996;DHT22;2012;49.794;9.722;2022-09-25T10:14:51;13.80;99.90
3996;DHT22;2012;49.794;9.722;2022-09-25T10:17:19;13.80;99.90
3996;DHT22;2012;49.794;9.722;2022-09-25T10:19:54;13.80;99.90
3996;DHT22;2012;49.794;9.722;2022-09-25T10:22:26;13.80;99.90
3996;DHT22;2012;49.794;9.722;2022-09-25T10:24:59;13.80;99.90
3996;DHT22;2012;49.794;9.722;2022-09-25T10:27:31;13.90;99.90
3996;DHT22;2012;49.794;9.722;2022-09-25T10:32:33;13.90;99.90
3996;DHT22;2012;49.794;9.722;2022-09-25T10:35:01;13.90;99.90
3996;DHT22;2012;49.794;9.722;2022-09-25T10:37:31;13.80;99.90
3996;DHT22;2012;49.794;9.722;2022-09-25T10:40:06;13.80;99.90
3996;DHT22;2012;49.794;9.722;2022-09-25T10:42:40;13.80;99.90
3996;DHT22;2012;49.794;9.722;2022-09-25T10:45:29;13.80;99.90
3996;DHT22;2012;49.794;9.722;2022-09-25T10:47:56;13.90;99.90
3996;DHT22;2012;49.794;9.722;2022-09-25T10:50:42;13.90;99.90
3996;DHT22;2012;49.794;9.722;2022-09-25T10:53:26;13.90;99.90
3996;DHT22;2012;49.794;9.722;2022-09-25T10:56:03;13.90;99.90
3996;DHT22;2012;49.794;9.722;2022-09-25T10:58:35;13.90;99.90
3996;DHT22;2012;49.794;9.722;2022-09-25T11:01:03;14.00;99.90
3996;DHT22;2012;49.794;9.722;2022-09-25T11:03:33;14.00;99.90
3996;DHT22;2012;49.794;9.722;2022-09-25T11:06:09;14.00;99.90
3996;DHT22;2012;49.794;9.722;2022-09-25T11:08:49;14.10;99.90
3996;DHT22;2012;49.794;9.722;2022-09-25T11:11:21;14.10;99.90
3996;DHT22;2012;49.794;9.722;2022-09-25T11:13:54;14.00;99.90
3996;DHT22;2012;49.794;9.722;2022-09-25T11:16:52;14.10;99.90
3996;DHT22;2012;49.794;9.722;2022-09-25T11:19:31;14.10;99.90
3996;DHT22;2012;49.794;9.722;2022-09-25T11:22:09;14.20;99.90
3996;DHT22;2012;49.794;9.722;2022-09-25T11:30:09;14.10;99.90
3996;DHT22;2012;49.794;9.722;2022-09-25T11:35:40;14.10;99.90
3996;DHT22;2012;49.794;9.722;2022-09-25T11:38:23;14.20;99.90
3996;DHT22;2012;49.794;9.722;2022-09-25T11:41:38;14.30;99.90
3996;DHT22;2012;49.794;9.722;2022-09-25T11:49:48;14.40;99.90
3996;DHT22;2012;49.794;9.722;2022-09-25T11:52:41;14.40;99.90
3996;DHT22;2012;49.794;9.722;2022-09-25T12:02:11;14.60;99.90
3996;DHT22;2012;49.794;9.722;2022-09-25T12:04:49;14.70;99.90
3996;DHT22;2012;49.794;9.722;2022-09-25T12:23:32;14.80;99.90
3996;DHT22;2012;49.794;9.722;2022-09-25T12:26:14;14.80;99.90
3996;DHT22;2012;49.794;9.722;2022-09-25T12:29:19;14.90;99.90
3996;DHT22;2012;49.794;9.722;2022-09-25T12:32:02;14.90;99.90
3996;DHT22;2012;49.794;9.722;2022-09-25T12:37:49;15.00;99.90
3996;DHT22;2012;49.794;9.722;2022-09-25T12:43:01;14.90;99.90
3996;DHT22;2012;49.794;9.722;2022-09-25T12:45:55;14.90;99.90
3996;DHT22;2012;49.794;9.722;2022-09-25T12:48:34;14.90;99.90
3996;DHT22;2012;49.794;9.722;2022-09-25T12:51:24;14.90;99.90
3996;DHT22;2012;49.794;9.722;2022-09-25T12:54:08;15.00;99.90
3996;DHT22;2012;49.794;9.722;2022-09-25T12:56:45;15.00;99.90
3996;DHT22;2012;49.794;9.722;2022-09-25T13:07:58;15.20;99.90
3996;DHT22;2012;49.794;9.722;2022-09-25T13:10:34;15.20;99.90
3996;DHT22;2012;49.794;9.722;2022-09-25T13:13:04;15.50;99.90
3996;DHT22;2012;49.794;9.722;2022-09-25T13:15:40;15.80;99.90
3996;DHT22;2012;49.794;9.722;2022-09-25T13:18:15;16.00;99.90
3996;DHT22;2012;49.794;9.722;2022-09-25T13:20:51;16.10;99.90
3996;DHT22;2012;49.794;9.722;2022-09-25T13:23:38;16.00;99.90
3996;DHT22;2012;49.794;9.722;2022-09-25T13:26:13;16.00;99.90
3996;DHT22;2012;49.794;9.722;2022-09-25T13:29:00;15.90;99.90
3996;DHT22;2012;49.794;9.722;2022-09-25T13:31:31;16.00;99.90
3996;DHT22;2012;49.794;9.722;2022-09-25T13:36:48;15.80;99.90
3996;DHT22;2012;49.794;9.722;2022-09-25T13:42:30;15.80;99.90
3996;DHT22;2012;49.794;9.722;2022-09-25T13:45:26;15.80;99.90
3996;DHT22;2012;49.794;9.722;2022-09-25T13:47:59;15.90;99.90
3996;DHT22;2012;49.794;9.722;2022-09-25T13:50:38;15.70;99.90
3996;DHT22;2012;49.794;9.722;2022-09-25T13:58:27;15.70;99.90
3996;DHT22;2012;49.794;9.722;2022-09-25T14:00:56;15.60;99.90
3996;DHT22;2012;49.794;9.722;2022-09-25T14:03:45;15.50;99.90
3996;DHT22;2012;49.794;9.722;2022-09-25T14:06:23;15.50;99.90
3996;DHT22;2012;49.794;9.722;2022-09-25T14:08:53;15.40;99.90
3996;DHT22;2012;49.794;9.722;2022-09-25T14:11:29;15.30;99.90
3996;DHT22;2012;49.794;9.722;2022-09-25T14:14:03;15.30;99.90
3996;DHT22;2012;49.794;9.722;2022-09-25T14:16:33;15.20;99.90
3996;DHT22;2012;49.794;9.722;2022-09-25T14:19:03;15.20;99.90
3996;DHT22;2012;49.794;9.722;2022-09-25T14:21:30;15.20;99.90
3996;DHT22;2012;49.794;9.722;2022-09-25T14:24:21;15.20;99.90
3996;DHT22;2012;49.794;9.722;2022-09-25T14:26:49;15.20;99.90
3996;DHT22;2012;49.794;9.722;2022-09-25T14:29:24;15.10;99.90
3996;DHT22;2012;49.794;9.722;2022-09-25T14:34:55;15.10;99.90
3996;DHT22;2012;49.794;9.722;2022-09-25T14:40:49;14.90;99.90
3996;DHT22;2012;49.794;9.722;2022-09-25T14:43:40;14.80;99.90
3996;DHT22;2012;49.794;9.722;2022-09-25T14:46:14;14.80;99.90
3996;DHT22;2012;49.794;9.722;2022-09-25T14:48:52;14.80;99.90
3996;DHT22;2012;49.794;9.722;2022-09-25T14:51:37;14.80;99.90
3996;DHT22;2012;49.794;9.722;2022-09-25T14:54:09;14.80;99.90
3996;DHT22;2012;49.794;9.722;2022-09-25T14:56:42;14.80;99.90
3996;DHT22;2012;49.794;9.722;2022-09-25T14:59:32;14.80;99.90
3996;DHT22;2012;49.794;9.722;2022-09-25T15:02:03;14.80;99.90
3996;DHT22;2012;49.794;9.722;2022-09-25T15:04:32;14.70;99.90
3996;DHT22;2012;49.794;9.722;2022-09-25T15:07:23;14.70;99.90
3996;DHT22;2012;49.794;9.722;2022-09-25T15:09:51;14.80;99.90
3996;DHT22;2012;49.794;9.722;2022-09-25T15:12:26;14.70;99.90
3996;DHT22;2012;49.794;9.722;2022-09-25T15:15:11;14.70;99.90
3996;DHT22;2012;49.794;9.722;2022-09-25T15:17:51;14.70;99.90
3996;DHT22;2012;49.794;9.722;2022-09-25T15:20:21;14.70;99.90
3996;DHT22;2012;49.794;9.722;2022-09-25T15:22:54;14.80;99.90
3996;DHT22;2012;49.794;9.722;2022-09-25T15:25:26;14.80;99.90
3996;DHT22;2012;49.794;9.722;2022-09-25T15:27:54;14.80;99.90
3996;DHT22;2012;49.794;9.722;2022-09-25T15:30:24;14.70;99.90
3996;DHT22;2012;49.794;9.722;2022-09-25T15:32:53;14.80;99.90
3996;DHT22;2012;49.794;9.722;2022-09-25T15:35:28;14.70;99.90
3996;DHT22;2012;49.794;9.722;2022-09-25T15:38:04;14.70;99.90
3996;DHT22;2012;49.794;9.722;2022-09-25T15:40:33;14.50;99.90
3996;DHT22;2012;49.794;9.722;2022-09-25T15:43:00;14.50;99.90
3996;DHT22;2012;49.794;9.722;2022-09-25T15:45:35;14.50;99.90
3996;DHT22;2012;49.794;9.722;2022-09-25T15:50:50;14.40;99.90
3996;DHT22;2012;49.794;9.722;2022-09-25T15:53:26;14.50;99.90
3996;DHT22;2012;49.794;9.722;2022-09-25T15:56:03;14.40;99.90
3996;DHT22;2012;49.794;9.722;2022-09-25T15:58:32;14.50;99.90
3996;DHT22;2012;49.794;9.722;2022-09-25T16:01:01;14.50;99.90
3996;DHT22;2012;49.794;9.722;2022-09-25T16:03:50;14.40;99.90
3996;DHT22;2012;49.794;9.722;2022-09-25T16:06:42;14.40;99.90
3996;DHT22;2012;49.794;9.722;2022-09-25T16:09:17;14.40;99.90
3996;DHT22;2012;49.794;9.722;2022-09-25T16:11:45;14.40;99.90
3996;DHT22;2012;49.794;9.722;2022-09-25T16:14:26;14.40;99.90
3996;DHT22;2012;49.794;9.722;2022-09-25T16:16:56;14.50;99.90
3996;DHT22;2012;49.794;9.722;2022-09-25T16:21:53;14.40;99.90
3996;DHT22;2012;49.794;9.722;2022-09-25T16:24:27;14.40;99.90
3996;DHT22;2012;49.794;9.722;2022-09-25T16:26:59;14.40;99.90
3996;DHT22;2012;49.794;9.722;2022-09-25T16:29:29;14.40;99.90
3996;DHT22;2012;49.794;9.722;2022-09-25T16:32:02;14.40;99.90
3996;DHT22;2012;49.794;9.722;2022-09-25T16:34:37;14.30;99.90
3996;DHT22;2012;49.794;9.722;2022-09-25T16:37:12;14.30;99.90
3996;DHT22;2012;49.794;9.722;2022-09-25T16:39:43;14.20;99.90
3996;DHT22;2012;49.794;9.722;2022-09-25T16:42:24;14.20;99.90
3996;DHT22;2012;49.794;9.722;2022-09-25T16:45:19;14.20;99.90
3996;DHT22;2012;49.794;9.722;2022-09-25T16:47:48;14.10;99.90
3996;DHT22;2012;49.794;9.722;2022-09-25T16:50:17;14.00;99.90
3996;DHT22;2012;49.794;9.722;2022-09-25T16:52:45;14.10;99.90
3996;DHT22;2012;49.794;9.722;2022-09-25T16:55:19;14.00;99.90
3996;DHT22;2012;49.794;9.722;2022-09-25T16:57:46;14.10;99.90
3996;DHT22;2012;49.794;9.722;2022-09-25T17:00:22;14.10;99.90
3996;DHT22;2012;49.794;9.722;2022-09-25T17:02:50;14.10;99.90
3996;DHT22;2012;49.794;9.722;2022-09-25T17:05:18;14.00;99.90
3996;DHT22;2012;49.794;9.722;2022-09-25T17:07:47;14.10;99.90
3996;DHT22;2012;49.794;9.722;2022-09-25T17:10:16;14.10;99.90
3996;DHT22;2012;49.794;9.722;2022-09-25T17:12:45;14.00;99.90
3996;DHT22;2012;49.794;9.722;2022-09-25T17:15:26;14.00;99.90
3996;DHT22;2012;49.794;9.722;2022-09-25T17:17:54;14.00;99.90
3996;DHT22;2012;49.794;9.722;2022-09-25T17:20:23;14.00;99.90
3996;DHT22;2012;49.794;9.722;2022-09-25T17:22:51;13.90;99.90
3996;DHT22;2012;49.794;9.722;2022-09-25T17:25:40;13.90;99.90
3996;DHT22;2012;49.794;9.722;2022-09-25T17:28:09;13.80;99.90
3996;DHT22;2012;49.794;9.722;2022-09-25T17:30:37;13.80;99.90
3996;DHT22;2012;49.794;9.722;2022-09-25T17:33:05;13.80;99.90
3996;DHT22;2012;49.794;9.722;2022-09-25T17:36:00;13.60;99.90
3996;DHT22;2012;49.794;9.722;2022-09-25T17:38:29;13.70;99.90
3996;DHT22;2012;49.794;9.722;2022-09-25T17:40:57;13.60;99.90
3996;DHT22;2012;49.794;9.722;2022-09-25T17:43:31;13.60;99.90
3996;DHT22;2012;49.794;9.722;2022-09-25T17:45:59;13.60;99.90
3996;DHT22;2012;49.794;9.722;2022-09-25T17:48:28;13.60;99.90
3996;DHT22;2012;49.794;9.722;2022-09-25T17:50:57;13.60;99.90
3996;DHT22;2012;49.794;9.722;2022-09-25T17:53:32;13.70;99.90
3996;DHT22;2012;49.794;9.722;2022-09-25T17:56:00;13.70;99.90
3996;DHT22;2012;49.794;9.722;2022-09-25T17:58:28;13.60;99.90
3996;DHT22;2012;49.794;9.722;2022-09-25T18:00:57;13.60;99.90
3996;DHT22;2012;49.794;9.722;2022-09-25T18:03:27;13.60;99.90
3996;DHT22;2012;49.794;9.722;2022-09-25T18:05:56;13.60;99.90
3996;DHT22;2012;49.794;9.722;2022-09-25T18:08:23;13.60;99.90
3996;DHT22;2012;49.794;9.722;2022-09-25T18:10:54;13.60;99.90
3996;DHT22;2012;49.794;9.722;2022-09-25T18:13:24;13.60;99.90
3996;DHT22;2012;49.794;9.722;2022-09-25T18:15:57;13.60;99.90
3996;DHT22;2012;49.794;9.722;2022-09-25T18:18:24;13.60;99.90
3996;DHT22;2012;49.794;9.722;2022-09-25T18:21:11;13.60;99.90
3996;DHT22;2012;49.794;9.722;2022-09-25T18:23:56;13.60;99.90
3996;DHT22;2012;49.794;9.722;2022-09-25T18:26:23;13.60;99.90
3996;DHT22;2012;49.794;9.722;2022-09-25T18:28:56;13.60;99.90
3996;DHT22;2012;49.794;9.722;2022-09-25T18:31:23;13.60;99.90
3996;DHT22;2012;49.794;9.722;2022-09-25T18:33:49;13.50;99.90
3996;DHT22;2012;49.794;9.722;2022-09-25T18:36:20;13.50;99.90
3996;DHT22;2012;49.794;9.722;2022-09-25T18:38:46;13.40;99.90